Nearby METAR Reports - Updated every 30 to 60 minutes

KMYV - Marysville, California, USA
Distance from station: SE 6mi, 9.6km
Updated: Thu, 19-Apr-2018 1:53pm PDT
Clear
Clear
 Wind from NW
Wind: NW 14 mph , 22 km/h
Temperature: 68°F , 20°C
Dew Point: 41°F , 5°C
Humidity: 38%
Barometer: 30.04 inHg , 1017.3 hPa
Clouds: Clear
Visibility: 10 miles , 16 km
2018/04/19 20:53 KMYV 192053Z AUTO 32012KT 10SM CLR 20/05 A3004 RMK AO2 SLP175 T02000050 58006
KOVE - Oroville, California, USA
Distance from station: 0 27mi, 45km
Updated: Thu, 19-Apr-2018 1:53pm PDT
Clear
Clear
 Wind from WNW
Wind: WNW 10 mph , 17 km/h
Temperature: 68°F , 20°C
Dew Point: 43°F , 6°C
Humidity: 40%
Barometer: 30.04 inHg , 1017.3 hPa
Clouds: Clear
Visibility: 10 miles , 16 km
2018/04/19 20:53 KOVE 192053Z AUTO 29009KT 10SM CLR 20/06 A3004 RMK AO2 SLP175 T02000056 58006
 
KCIC - Chico Municipal, California, USA
Distance from station: NNW 50mi, 80.6km
Updated: Thu, 19-Apr-2018 1:47pm PDT
Partly cloudy
Partly cloudy
 Wind from WNW
Wind: WNW 17 mph , 28 km/h, Gust: 25 mph , 41 km/h
Temperature: 68°F , 20°C
Dew Point: 34°F , 1°C
Humidity: 28%
Barometer: 30.03 inHg , 1016.9 hPa
Clouds: Partly cloudy
Visibility: 40 miles , 64 km
Cloud details: Partly cloudy 7000 ft
2018/04/19 20:47 KCIC 192047Z 30015G22KT 40SM SCT070 20/01 A3003
KRBL - Red Bluff, California, USA
Distance from station: NNW 85mi, 137km
Updated: Thu, 19-Apr-2018 1:54pm PDT
Clear
Clear
 Wind from NW
Wind: NW 13 mph , 20 km/h
Temperature: 70°F , 21°C
Dew Point: 36°F , 2°C
Humidity: 29%
Barometer: 30.06 inHg , 1017.9 hPa
Clouds: Clear
Visibility: 10 miles , 16 km
2018/04/19 20:54 KRBL 192054Z AUTO 32011KT 10SM CLR 21/02 A3006 RMK AO2 SLP177 T02060017 58007
 
KRDD - Redding, California, USA
Distance from station: N 110mi, 177km
Updated: Thu, 19-Apr-2018 1:53pm PDT
Clear
Clear
 Wind from N
Wind: N 10 mph , 17 km/h
Temperature: 70°F , 21°C
Dew Point: 30°F , -1°C
Humidity: 23%
Barometer: 30.04 inHg , 1017.3 hPa
Clouds: Clear
Visibility: 10 miles , 16 km
2018/04/19 20:53 KRDD 192053Z 35009KT 10SM CLR 21/M01 A3004 RMK AO2 SLP171 T02061011 58009
KMHS - Mount Shasta, California, USA
Distance from station: N 170mi, 274km
Updated: Thu, 19-Apr-2018 1:56pm PDT
Clear
Clear
 Wind from varies
Wind: varies 6 mph , 9 km/h, Gust: 20 mph , 31 km/h
Temperature: 54°F , 12°C
Dew Point: 30°F , -1°C
Humidity: 41%
Barometer: 30.10 inHg , 1019.3 hPa
Clouds: Clear
Visibility: 10 miles , 16 km
2018/04/19 20:56 KMHS 192056Z AUTO VRB05G17KT 10SM CLR 12/M01 A3010 RMK AO2 SLP209 T01221006 50004
 
KSIY - Montague/Siskiyou, California, USA
Distance from station: N 214mi, 3441km
Updated: Thu, 19-Apr-2018 1:53pm PDT
Few Clouds
Few Clouds
 Wind from N
Wind: N 7 mph , 11 km/h, Gust: 21 mph , 33 km/h
Temperature: 55°F , 13°C
Dew Point: 32°F , 0°C
Humidity: 41%
Barometer: 30.15 inHg , 1021 hPa
Clouds: Few Clouds
Visibility: 10 miles , 16 km
Cloud details: Few Clouds 5000 ft
2018/04/19 20:53 KSIY 192053Z AUTO 35006G18KT 10SM FEW050 13/00 A3015 RMK AO2 SLP221 T01330000 58003
KO54 - Weaverville, California, USA
Distance from station: NW 161mi, 259km
Updated: Thu, 19-Apr-2018 1:55pm PDT
Clear
Clear
 Wind from SW
Wind: SW 8 mph , 13 km/h
Temperature: 59°F , 15°C
Dew Point: 32°F , 0°C
Humidity: 36%
Barometer: 30.08 inHg , 1018.6 hPa
Clouds: Clear
Visibility: 10 miles , 16 km
2018/04/19 20:55 KO54 192055Z AUTO 23007KT 140V240 10SM CLR 15/00 A3008 RMK AO1
 
KO86 - Trinity Center, California, USA
Distance from station: NNW 181mi, 291km
Updated: Tue, 03-Apr-2018 9:35pm PDT
NOT Current
Partly cloudy
Partly cloudy
 Wind from W
Wind: W 3 mph , 6 km/h
Temperature: 54°F , 12°C
Dew Point: 36°F , 2°C
Humidity: 51%
Barometer: 30.02 inHg , 1016.6 hPa
Clouds: Partly cloudy
Visibility: 10 miles , 16 km
Cloud details: Partly cloudy 10000 ft
2018/04/04 04:35 KO86 040435Z AUTO 27003KT 10SM SCT100 12/02 A3002 RMK AO1
KCEC - Crescent City, California, USA
Distance from station: SE 355mi, 571km
Updated: Thu, 19-Apr-2018 1:56pm PDT
Clear
Clear
 Wind from NNW
Wind: NNW 16 mph , 26 km/h, Gust: 29 mph , 46 km/h
Temperature: 57°F , 14°C
Dew Point: 48°F , 9°C
Humidity: 72%
Barometer: 30.20 inHg , 1022.7 hPa
Clouds: Clear
Visibility: 10 miles , 16 km
2018/04/19 20:56 KCEC 192056Z AUTO 34014G25KT 10SM CLR 14/09 A3020 RMK AO2 SLP226 6//// T01390094 58009
 
KACV - Arcata/Eureka, California, USA
Distance from station: WNW 259mi, 417km
Updated: Thu, 19-Apr-2018 1:53pm PDT
Clear
Clear
 Wind from NNW
Wind: NNW 17 mph , 28 km/h
Temperature: 61°F , 16°C
Dew Point: 48°F , 9°C
Humidity: 63%
Barometer: 30.18 inHg , 1022 hPa
Clouds: Clear
Visibility: 10 miles , 16 km
2018/04/19 20:53 KACV 192053Z AUTO 33015KT 10SM CLR 16/09 A3018 RMK AO2 SLP226 T01560094 58008
KFOT - Fortuna, California, USA
Distance from station: S 245mi, 395km
Updated: Thu, 19-Apr-2018 1:55pm PDT
Clear
Clear
 Wind from NW
Wind: NW 15 mph , 24 km/h, Gust: 24 mph , 39 km/h
Temperature: 57°F , 14°C
Dew Point: 46°F , 8°C
Humidity: 67%
Barometer: 30.18 inHg , 1022 hPa
Clouds: Clear
Visibility: 10 miles , 16 km
2018/04/19 20:55 KFOT 192055Z AUTO 32013G21KT 10SM CLR 14/08 A3018 RMK AO1
 
KAAT - Alturas, California, USA
Distance from station: E 256mi, 412km
Updated: Thu, 19-Apr-2018 1:55pm PDT
Overcast
Overcast
 Wind from N
Wind: N 12 mph , 19 km/h
Temperature: 48°F , 9°C
Wind Chill: 43°F , 6°C
Dew Point: 32°F , 0°C
Humidity: 54%
Barometer: 30.08 inHg , 1018.6 hPa
Clouds: Overcast
Visibility: 10 miles , 16 km
Cloud details: Overcast 5000 ft
2018/04/19 20:55 KAAT 192055Z AUTO 01010KT 10SM OVC050 09/00 A3008 RMK AO2 SLP186 T00890000 51008
KSVE - Susanville Muni, California, USA
Distance from station: E 241mi, 145km
Updated: Thu, 19-Apr-2018 1:55pm PDT
Overcast
Overcast
 Wind from NNW
Wind: NNW 14 mph , 22 km/h
Temperature: 50°F , 10°C
Wind Chill: 45°F , 7°C
Dew Point: 32°F , 0°C
Humidity: 50%
Barometer: 30.06 inHg , 1017.9 hPa
Clouds: Overcast
Visibility: 10 miles , 16 km
Cloud details: Few Clouds 4400 ft
Mostly cloudy 5000 ft
Overcast 6000 ft
2018/04/19 20:55 KSVE 192055Z AUTO 33012KT 10SM FEW044 BKN050 OVC060 10/00 A3006 RMK AO2

spacer wunderground wow PWS SWWN Image Map